createdAt,value
2017-04-20T00:00:35.141Z,36.33
2017-04-20T00:01:35.477Z,36.33
2017-04-20T00:02:35.509Z,36.43
2017-04-20T00:03:35.214Z,36.23
2017-04-20T00:04:35.563Z,36.33
2017-04-20T00:05:35.591Z,36.33
2017-04-20T00:06:35.617Z,36.33
2017-04-20T00:07:35.643Z,36.33
2017-04-20T00:08:35.355Z,36.61
2017-04-20T00:09:35.947Z,36.33
2017-04-20T00:10:35.725Z,36.43
2017-04-20T00:11:35.749Z,36.23
2017-04-20T00:12:35.781Z,36.52
2017-04-20T00:13:35.799Z,36.52
2017-04-20T00:14:36.111Z,36.43
2017-04-20T00:15:35.543Z,36.51
2017-04-20T00:16:35.881Z,36.43
2017-04-20T00:17:35.909Z,36.43
2017-04-20T00:18:35.934Z,36.61
2017-04-20T00:19:36.207Z,36.33
2017-04-20T00:20:35.677Z,36.51
2017-04-20T00:21:36.010Z,36.52
2017-04-20T00:22:36.032Z,36.52
2017-04-20T00:23:35.755Z,36.43
2017-04-20T00:24:36.022Z,36.6
2017-04-20T00:25:36.117Z,36.69
2017-04-20T00:26:36.143Z,36.51
2017-04-20T00:27:36.167Z,36.71
2017-04-20T00:28:36.194Z,36.79
2017-04-20T00:29:36.469Z,36.6
2017-04-20T00:30:36.246Z,36.79
2017-04-20T00:31:36.271Z,36.69
2017-04-20T00:32:35.984Z,36.6
2017-04-20T00:33:36.329Z,36.69
2017-04-20T00:34:36.605Z,36.6
2017-04-20T00:35:36.370Z,36.69
2017-04-20T00:36:36.402Z,36.6
2017-04-20T00:37:36.116Z,36.69
2017-04-20T00:38:36.452Z,36.51
2017-04-20T00:39:36.424Z,36.51
2017-04-20T00:40:36.189Z,36.69
2017-04-20T00:41:36.543Z,36.69
2017-04-20T00:42:36.559Z,36.6
2017-04-20T00:43:36.585Z,36.79
2017-04-20T00:44:36.869Z,36.89
2017-04-20T00:45:36.641Z,36.89
2017-04-20T00:46:36.666Z,36.79
2017-04-20T00:47:36.687Z,36.99
2017-04-20T00:48:36.721Z,36.69
2017-04-20T00:49:36.740Z,36.89
2017-04-20T00:50:36.777Z,36.51
2017-04-20T00:51:36.486Z,36.79
2017-04-20T00:52:36.823Z,36.79
2017-04-20T00:53:36.535Z,36.99
2017-04-20T00:54:36.872Z,36.99
2017-04-20T00:55:36.899Z,36.79
2017-04-20T00:56:36.618Z,37.27
2017-04-20T00:57:36.954Z,36.99
2017-04-20T00:58:36.984Z,37.08
2017-04-20T00:59:37.012Z,37.08
2017-04-20T01:00:36.716Z,37.18
2017-04-20T01:01:37.062Z,37.18
2017-04-20T01:02:37.086Z,37.18
2017-04-20T01:03:37.108Z,37.08
2017-04-20T01:04:37.136Z,36.99
2017-04-20T01:05:37.166Z,36.99
2017-04-20T01:06:37.189Z,36.89
2017-04-20T01:07:37.214Z,36.99
2017-04-20T01:08:37.307Z,36.99
2017-04-20T01:09:37.280Z,36.99
2017-04-20T01:10:37.290Z,37.56
2017-04-20T01:11:37.000Z,37.56
2017-04-20T01:12:37.349Z,37.37
2017-04-20T01:13:37.374Z,37.37
2017-04-20T01:14:37.399Z,37.37
2017-04-20T01:15:37.424Z,37.35
2017-04-20T01:16:37.452Z,37.27
2017-04-20T01:17:37.474Z,37.46
2017-04-20T01:18:37.499Z,37.27
2017-04-20T01:19:37.527Z,37.18
2017-04-20T01:20:37.551Z,37.18
2017-04-20T01:21:37.269Z,37.16
2017-04-20T01:22:37.597Z,37.26
2017-04-20T01:23:37.630Z,37.37
2017-04-20T01:24:37.343Z,37.37
2017-04-20T01:25:37.683Z,37.37
2017-04-20T01:26:37.712Z,37.27
2017-04-20T01:27:37.728Z,37.37
2017-04-20T01:28:37.446Z,37.37
2017-04-20T01:29:37.475Z,37.37
2017-04-20T01:30:37.500Z,37.16
2017-04-20T01:31:37.528Z,37.16
2017-04-20T01:32:37.869Z,37.26
2017-04-20T01:33:37.894Z,37.26
2017-04-20T01:34:37.915Z,37.26
2017-04-20T01:35:37.635Z,37.18
2017-04-20T01:36:37.968Z,37.26
2017-04-20T01:37:37.996Z,36.97
2017-04-20T01:38:38.018Z,37.26
2017-04-20T01:39:38.047Z,36.97
2017-04-20T01:40:38.071Z,37.35
2017-04-20T01:41:38.104Z,37.45
2017-04-20T01:42:37.812Z,37.54
2017-04-20T01:43:38.154Z,37.16
2017-04-20T01:44:38.178Z,37.26
2017-04-20T01:45:38.211Z,37.54
2017-04-20T01:46:38.233Z,37.26
2017-04-20T01:47:38.266Z,37.16
2017-04-20T01:48:37.974Z,37.45
2017-04-20T01:49:38.303Z,37.35
2017-04-20T01:50:38.023Z,37.26
2017-04-20T01:51:38.362Z,37.45
2017-04-20T01:52:38.391Z,37.83
2017-04-20T01:53:38.413Z,37.45
2017-04-20T01:54:38.313Z,37.54
2017-04-20T01:55:38.690Z,37.64
2017-04-20T01:56:53.071Z,37.54
2017-04-20T01:57:38.745Z,37.64
2017-04-20T01:58:38.552Z,37.54
2017-04-20T01:59:38.789Z,37.64
2017-04-20T02:00:38.613Z,37.64
2017-04-20T02:01:38.895Z,37.74
2017-04-20T02:02:38.647Z,37.64
2017-04-20T02:03:38.673Z,37.54
2017-04-20T02:04:38.692Z,37.64
2017-04-20T02:05:38.413Z,37.64
2017-04-20T02:06:38.751Z,37.64
2017-04-20T02:07:38.777Z,37.74
2017-04-20T02:08:38.800Z,37.74
2017-04-20T02:09:38.829Z,37.35
2017-04-20T02:10:38.848Z,37.54
2017-04-20T02:11:38.877Z,37.54
2017-04-20T02:12:38.590Z,37.54
2017-04-20T02:13:38.932Z,37.54
2017-04-20T02:14:38.641Z,37.64
2017-04-20T02:15:38.919Z,37.54
2017-04-20T02:16:39.009Z,37.54
2017-04-20T02:17:39.063Z,37.54
2017-04-20T02:18:39.060Z,37.54
2017-04-20T02:19:38.768Z,37.54
2017-04-20T02:20:39.365Z,37.54
2017-04-20T02:21:39.158Z,37.54
2017-04-20T02:22:39.161Z,37.64
2017-04-20T02:23:39.193Z,37.54
2017-04-20T02:24:39.216Z,37.64
2017-04-20T02:25:39.493Z,37.64
2017-04-20T02:26:39.266Z,37.64
2017-04-20T02:27:39.292Z,37.45
2017-04-20T02:28:39.320Z,37.64
2017-04-20T02:29:39.344Z,37.93
2017-04-20T02:30:39.309Z,37.64
2017-04-20T02:31:39.401Z,37.93
2017-04-20T02:32:39.422Z,37.93
2017-04-20T02:33:39.454Z,37.93
2017-04-20T02:34:39.465Z,37.93
2017-04-20T02:35:39.751Z,37.83
2017-04-20T02:36:39.521Z,37.93
2017-04-20T02:37:39.548Z,37.93
2017-04-20T02:38:39.268Z,37.93
2017-04-20T02:39:39.606Z,37.93
2017-04-20T02:40:39.876Z,37.43
2017-04-20T02:41:39.650Z,37.83
2017-04-20T02:42:39.678Z,37.93
2017-04-20T02:43:39.703Z,37.52
2017-04-20T02:44:39.728Z,37.52
2017-04-20T02:45:39.441Z,37.81
2017-04-20T02:46:39.781Z,37.72
2017-04-20T02:47:39.809Z,37.81
2017-04-20T02:48:39.834Z,37.64
2017-04-20T02:49:39.551Z,37.52
2017-04-20T02:50:39.883Z,37.72
2017-04-20T02:51:39.935Z,37.64
2017-04-20T02:52:39.937Z,37.81
2017-04-20T02:53:39.962Z,37.62
2017-04-20T02:54:39.989Z,37.62
2017-04-20T02:55:40.148Z,37.52
2017-04-20T02:56:39.724Z,38.01
2017-04-20T02:57:40.066Z,37.62
2017-04-20T02:58:40.090Z,37.72
2017-04-20T02:59:39.810Z,37.72
2017-04-20T03:00:39.831Z,38.01
2017-04-20T03:01:40.163Z,37.91
2017-04-20T03:02:40.193Z,38.1
2017-04-20T03:03:39.903Z,38.29
2017-04-20T03:04:40.246Z,38.01
2017-04-20T03:05:40.271Z,37.91
2017-04-20T03:06:40.291Z,37.72
2017-04-20T03:07:40.004Z,38.01
2017-04-20T03:08:40.352Z,38.01
2017-04-20T03:09:40.377Z,37.62
2017-04-20T03:10:40.399Z,37.62
2017-04-20T03:11:40.426Z,37.91
2017-04-20T03:12:40.451Z,37.72
2017-04-20T03:13:40.501Z,37.72
2017-04-20T03:14:40.498Z,37.91
2017-04-20T03:15:40.534Z,37.62
2017-04-20T03:16:40.551Z,37.81
2017-04-20T03:17:40.585Z,37.62
2017-04-20T03:18:40.600Z,37.62
2017-04-20T03:19:40.629Z,37.81
2017-04-20T03:20:40.650Z,38.01
2017-04-20T03:21:40.679Z,38.01
2017-04-20T03:22:40.704Z,38.01
2017-04-20T03:23:40.732Z,37.81
2017-04-20T03:24:40.440Z,37.81
2017-04-20T03:25:40.786Z,37.91
2017-04-20T03:26:40.806Z,37.91
2017-04-20T03:27:40.836Z,37.81
2017-04-20T03:28:40.860Z,37.81
2017-04-20T03:29:40.885Z,38.01
2017-04-20T03:30:40.914Z,37.91
2017-04-20T03:31:40.626Z,38.01
2017-04-20T03:32:40.647Z,38.1
2017-04-20T03:33:40.993Z,38.1
2017-04-20T03:34:41.011Z,38.1
2017-04-20T03:35:41.037Z,38.01
2017-04-20T03:36:41.058Z,38.1
2017-04-20T03:37:41.086Z,38.01
2017-04-20T03:38:41.120Z,38.01
2017-04-20T03:39:41.141Z,38.1
2017-04-20T03:40:40.857Z,38.01
2017-04-20T03:41:41.193Z,38.1
2017-04-20T03:42:41.218Z,38.01
2017-04-20T03:43:41.245Z,38.01
2017-04-20T03:44:40.960Z,38.01
2017-04-20T03:45:40.984Z,38.01
2017-04-20T03:46:41.322Z,38.1
2017-04-20T03:47:41.039Z,38.01
2017-04-20T03:48:41.068Z,38.01
2017-04-20T03:49:41.404Z,38.01
2017-04-20T03:50:41.424Z,37.62
2017-04-20T03:51:41.449Z,38.01
2017-04-20T03:52:41.157Z,38.01
2017-04-20T03:53:41.502Z,38.01
2017-04-20T03:54:41.215Z,37.72
2017-04-20T03:55:41.572Z,37.81
2017-04-20T03:56:41.829Z,37.81
2017-04-20T03:57:41.286Z,37.81
2017-04-20T03:58:41.630Z,38.01
2017-04-20T03:59:41.652Z,37.91
2017-04-20T04:00:41.680Z,37.81
2017-04-20T04:01:41.955Z,37.72
2017-04-20T04:02:41.421Z,37.81
2017-04-20T04:03:41.778Z,38.01
2017-04-20T04:04:41.783Z,37.81
2017-04-20T04:05:41.496Z,37.91
2017-04-20T04:06:42.087Z,37.91
2017-04-20T04:07:41.549Z,37.81
2017-04-20T04:08:41.575Z,37.91
2017-04-20T04:09:41.911Z,38.01
2017-04-20T04:10:41.931Z,37.72
2017-04-20T04:11:42.204Z,38.01
2017-04-20T04:12:41.965Z,38.01
2017-04-20T04:13:42.009Z,37.72
2017-04-20T04:14:42.038Z,37.79
2017-04-20T04:15:42.060Z,37.81
2017-04-20T04:16:42.335Z,37.91
2017-04-20T04:17:42.111Z,38.01
2017-04-20T04:18:42.139Z,37.62
2017-04-20T04:19:42.162Z,37.79
2017-04-20T04:20:42.191Z,37.81
2017-04-20T04:21:42.155Z,38.28
2017-04-20T04:22:42.236Z,38.1
2017-04-20T04:23:42.263Z,38.2
2017-04-20T04:24:42.290Z,38.29
2017-04-20T04:25:42.310Z,38.01
2017-04-20T04:26:42.591Z,38.01
2017-04-20T04:27:42.368Z,38.29
2017-04-20T04:28:42.080Z,38.29
2017-04-20T04:29:42.557Z,38.29
2017-04-20T04:30:42.446Z,38.1
2017-04-20T04:31:42.411Z,37.81
2017-04-20T04:32:42.496Z,37.72
2017-04-20T04:33:42.522Z,37.72
2017-04-20T04:34:42.229Z,38.01
2017-04-20T04:35:42.575Z,37.62
2017-04-20T04:36:42.858Z,37.91
2017-04-20T04:37:42.624Z,38.1
2017-04-20T04:38:42.693Z,37.62
2017-04-20T04:39:42.674Z,37.52
2017-04-20T04:40:42.698Z,37.72
2017-04-20T04:41:42.671Z,37.62
2017-04-20T04:42:42.756Z,38.01
2017-04-20T04:43:42.776Z,37.81
2017-04-20T04:44:42.799Z,37.54
2017-04-20T04:45:42.826Z,37.54
2017-04-20T04:46:43.105Z,37.54
2017-04-20T04:47:42.875Z,37.74
2017-04-20T04:48:42.903Z,37.54
2017-04-20T04:49:42.929Z,37.45
2017-04-20T04:50:42.955Z,37.26
2017-04-20T04:51:43.230Z,37.16
2017-04-20T04:52:43.007Z,37.35
2017-04-20T04:53:43.023Z,37.26
2017-04-20T04:54:43.058Z,37.26
2017-04-20T04:55:42.774Z,37.06
2017-04-20T04:56:42.801Z,37.26
2017-04-20T04:57:43.136Z,37.64
2017-04-20T04:58:43.159Z,37.45
2017-04-20T04:59:43.188Z,37.06
2017-04-20T05:00:43.212Z,37.35
2017-04-20T05:01:43.243Z,36.97
2017-04-20T05:02:42.947Z,37.16
2017-04-20T05:03:43.288Z,36.97
2017-04-20T05:04:42.996Z,37.06
2017-04-20T05:05:43.025Z,37.26
2017-04-20T05:06:43.364Z,36.97
2017-04-20T05:07:43.391Z,37.06
2017-04-20T05:08:43.415Z,37.16
2017-04-20T05:09:43.443Z,36.68
2017-04-20T05:10:43.468Z,36.97
2017-04-20T05:11:43.494Z,36.87
2017-04-20T05:12:43.517Z,36.97
2017-04-20T05:13:43.542Z,36.68
2017-04-20T05:14:43.575Z,36.97
2017-04-20T05:15:43.588Z,36.79
2017-04-20T05:16:43.616Z,36.79
2017-04-20T05:17:43.645Z,36.79
2017-04-20T05:18:43.666Z,36.69
2017-04-20T05:19:43.701Z,36.69
2017-04-20T05:20:43.729Z,36.6
2017-04-20T05:21:43.754Z,36.79
2017-04-20T05:22:43.465Z,36.79
2017-04-20T05:23:43.492Z,36.79
2017-04-20T05:24:43.827Z,36.6
2017-04-20T05:25:43.852Z,36.69
2017-04-20T05:26:43.572Z,36.69
2017-04-20T05:27:43.908Z,36.79
2017-04-20T05:28:43.618Z,36.79
2017-04-20T05:29:43.956Z,36.6
2017-04-20T05:30:43.668Z,36.79
2017-04-20T05:31:44.031Z,36.6
2017-04-20T05:32:43.717Z,36.51
2017-04-20T05:33:43.745Z,36.21
2017-04-20T05:34:43.768Z,36.51
2017-04-20T05:35:44.109Z,36.51
2017-04-20T05:36:43.825Z,36.31
2017-04-20T05:37:44.157Z,36.41
2017-04-20T05:38:43.873Z,36.51
2017-04-20T05:39:44.231Z,36.51
2017-04-20T05:40:44.239Z,36.31
2017-04-20T05:41:44.263Z,36.51
2017-04-20T05:42:44.290Z,36.51
2017-04-20T05:43:44.310Z,36.51
2017-04-20T05:44:44.342Z,36.21
2017-04-20T05:45:44.363Z,36.21
2017-04-20T05:46:44.392Z,36.41
2017-04-20T05:47:44.413Z,36.23
2017-04-20T05:48:44.134Z,36.11
2017-04-20T05:49:44.470Z,36.21
2017-04-20T05:50:44.184Z,36.13
2017-04-20T05:51:44.519Z,36.23
2017-04-20T05:52:44.800Z,36.13
2017-04-20T05:53:44.256Z,36.04
2017-04-20T05:54:44.598Z,36.13
2017-04-20T05:55:44.627Z,36.43
2017-04-20T05:56:44.651Z,36.33
2017-04-20T05:57:44.924Z,36.23
2017-04-20T05:58:44.698Z,36.33
2017-04-20T05:59:44.725Z,36.41
2017-04-20T06:00:44.749Z,36.13
2017-04-20T06:01:44.463Z,36.33
2017-04-20T06:02:45.052Z,36.04
2017-04-20T06:03:44.831Z,36.13
2017-04-20T06:04:44.857Z,36.04
2017-04-20T06:05:44.874Z,36.13
2017-04-20T06:06:44.912Z,36.33
2017-04-20T06:07:45.192Z,35.75
2017-04-20T06:08:44.961Z,35.75
2017-04-20T06:09:44.673Z,35.56
2017-04-20T06:10:45.006Z,35.85
2017-04-20T06:11:45.035Z,35.75
2017-04-20T06:12:45.314Z,35.75
2017-04-20T06:13:45.092Z,35.75
2017-04-20T06:14:45.116Z,35.75
2017-04-20T06:15:45.141Z,35.65
2017-04-20T06:16:45.167Z,35.46
2017-04-20T06:17:45.447Z,35.65
2017-04-20T06:18:45.220Z,35.46
2017-04-20T06:19:45.241Z,35.75
2017-04-20T06:20:45.274Z,35.75
2017-04-20T06:21:45.291Z,35.65
2017-04-20T06:22:45.262Z,35.75
2017-04-20T06:23:45.348Z,35.85
2017-04-20T06:24:45.377Z,35.75
2017-04-20T06:25:45.406Z,35.85
2017-04-20T06:26:45.430Z,35.36
2017-04-20T06:27:45.706Z,35.75
2017-04-20T06:28:45.169Z,35.56
2017-04-20T06:29:45.505Z,35.85
2017-04-20T06:30:45.533Z,35.85
2017-04-20T06:31:45.558Z,35.75
2017-04-20T06:32:45.838Z,35.75
2017-04-20T06:33:45.611Z,35.75
2017-04-20T06:34:45.635Z,36.23
2017-04-20T06:35:45.666Z,35.56
2017-04-20T06:36:45.698Z,35.85
2017-04-20T06:37:45.962Z,35.85
2017-04-20T06:38:45.739Z,35.85
2017-04-20T06:39:45.767Z,35.36
2017-04-20T06:40:45.791Z,36.13
2017-04-20T06:41:45.816Z,35.94
2017-04-20T06:42:45.842Z,36.23
2017-04-20T06:43:45.867Z,35.75
2017-04-20T06:44:45.899Z,35.85
2017-04-20T06:45:45.924Z,35.75
2017-04-20T06:46:45.949Z,35.94
2017-04-20T06:47:45.970Z,35.75
2017-04-20T06:48:45.995Z,35.75
2017-04-20T06:49:46.023Z,35.46
2017-04-20T06:50:46.053Z,35.85
2017-04-20T06:51:45.768Z,35.85
2017-04-20T06:52:46.106Z,35.75
2017-04-20T06:53:46.130Z,35.75
2017-04-20T06:54:46.160Z,36.13
2017-04-20T06:55:46.184Z,35.75
2017-04-20T06:56:45.901Z,35.85
2017-04-20T06:57:46.237Z,35.75
2017-04-20T06:58:45.950Z,35.85
2017-04-20T06:59:45.971Z,35.75
2017-04-20T07:00:46.005Z,35.85
2017-04-20T07:01:46.341Z,35.85
2017-04-20T07:02:46.048Z,35.56
2017-04-20T07:03:46.392Z,35.65
2017-04-20T07:04:46.418Z,35.65
2017-04-20T07:05:46.440Z,35.75
2017-04-20T07:06:46.472Z,35.65
2017-04-20T07:07:46.498Z,35.65
2017-04-20T07:08:46.209Z,35.75
2017-04-20T07:09:46.552Z,35.56
2017-04-20T07:10:46.568Z,35.56
2017-04-20T07:11:46.601Z,35.94
2017-04-20T07:12:46.631Z,34.98
2017-04-20T07:13:46.654Z,35.85
2017-04-20T07:14:46.682Z,35.94
2017-04-20T07:15:46.397Z,35.93
2017-04-20T07:16:46.727Z,36.04
2017-04-20T07:17:46.759Z,35.64
2017-04-20T07:18:46.786Z,35.27
2017-04-20T07:19:46.805Z,34.96
2017-04-20T07:20:46.525Z,35.25
2017-04-20T07:21:46.557Z,35.16
2017-04-20T07:22:46.889Z,35.25
2017-04-20T07:23:46.914Z,34.96
2017-04-20T07:24:46.942Z,35.08
2017-04-20T07:25:46.651Z,34.88
2017-04-20T07:26:47.288Z,34.96
2017-04-20T07:27:47.023Z,34.86
2017-04-20T07:28:47.046Z,34.96
2017-04-20T07:29:47.070Z,34.86
2017-04-20T07:30:46.785Z,35.06
2017-04-20T07:31:47.114Z,35.17
2017-04-20T07:32:47.152Z,35.25
2017-04-20T07:33:47.173Z,35.27
2017-04-20T07:34:47.201Z,35.93
2017-04-20T07:35:47.231Z,34
2017-04-20T07:36:47.260Z,32.84
2017-04-20T07:37:47.279Z,33.03
2017-04-20T07:38:47.304Z,31.21
2017-04-20T07:39:47.334Z,32.26
2017-04-20T07:40:47.045Z,32.65
2017-04-20T07:41:47.071Z,32.46
2017-04-20T07:42:47.407Z,32.46
2017-04-20T07:43:47.433Z,31
2017-04-20T07:44:47.462Z,31.87
2017-04-20T07:45:47.491Z,32.25
2017-04-20T07:46:47.513Z,32.15
2017-04-20T07:47:47.542Z,31.38
2017-04-20T07:48:47.819Z,30.71
2017-04-20T07:49:47.285Z,30.9
2017-04-20T07:50:47.301Z,30.9
2017-04-20T07:51:47.798Z,31
2017-04-20T07:52:47.354Z,30.8
2017-04-20T07:53:47.944Z,30.9
2017-04-20T07:54:47.726Z,30.8
2017-04-20T07:55:47.750Z,31.29
2017-04-20T07:56:47.774Z,31.19
2017-04-20T07:57:47.799Z,31.48
2017-04-20T07:58:47.763Z,30.9
2017-04-20T07:59:47.852Z,31.19
2017-04-20T08:00:47.566Z,31.19
2017-04-20T08:01:47.597Z,31.09
2017-04-20T08:02:47.930Z,31.09
2017-04-20T08:03:48.202Z,31.09
2017-04-20T08:04:47.982Z,31.01
2017-04-20T08:05:48.004Z,31.01
2017-04-20T08:06:47.724Z,30.53
2017-04-20T08:07:48.062Z,30.43
2017-04-20T08:08:48.338Z,29.97
2017-04-20T08:09:47.791Z,30.35
2017-04-20T08:10:47.828Z,31.03
2017-04-20T08:11:47.848Z,30.45
2017-04-20T08:12:48.194Z,29.58
2017-04-20T08:13:48.154Z,30.64
2017-04-20T08:14:47.923Z,30.93
2017-04-20T08:15:48.271Z,30.83
2017-04-20T08:16:48.297Z,30.91
2017-04-20T08:17:48.322Z,31.03
2017-04-20T08:18:48.601Z,31.32
2017-04-20T08:19:48.375Z,31.11
2017-04-20T08:20:48.088Z,32.17
2017-04-20T08:21:48.428Z,32.17
2017-04-20T08:22:48.448Z,31.01
2017-04-20T08:23:48.721Z,31.88
2017-04-20T08:24:48.501Z,32.36
2017-04-20T08:25:48.532Z,32.36
2017-04-20T08:26:48.559Z,32.26
2017-04-20T08:27:48.585Z,32.94
2017-04-20T08:28:48.861Z,32.65
2017-04-20T08:29:48.638Z,32.75
2017-04-20T08:30:48.663Z,32.65
2017-04-20T08:31:48.683Z,32.65
2017-04-20T08:32:48.713Z,32.56
2017-04-20T08:33:48.991Z,32.07
2017-04-20T08:34:48.765Z,31.7
2017-04-20T08:35:48.794Z,31.98
2017-04-20T08:36:48.811Z,32.07
2017-04-20T08:37:48.840Z,31.78
2017-04-20T08:38:48.872Z,32.26
2017-04-20T08:39:48.897Z,32.36
2017-04-20T08:40:48.918Z,32.17
2017-04-20T08:41:48.956Z,32.46
2017-04-20T08:42:48.980Z,32.65
2017-04-20T08:43:48.997Z,32.65
2017-04-20T08:44:49.033Z,33.13
2017-04-20T08:45:49.055Z,33.13
2017-04-20T08:46:48.775Z,33.05
2017-04-20T08:47:49.100Z,33.25
2017-04-20T08:48:48.816Z,33.03
2017-04-20T08:49:49.156Z,33.15
2017-04-20T08:50:49.190Z,33.13
2017-04-20T08:51:49.217Z,32.76
2017-04-20T08:52:49.236Z,33.05
2017-04-20T08:53:49.275Z,33.23
2017-04-20T08:54:49.289Z,33.13
2017-04-20T08:55:48.996Z,32.75
2017-04-20T08:56:49.343Z,33.53
2017-04-20T08:57:49.367Z,33.92
2017-04-20T08:58:49.383Z,33.81
2017-04-20T08:59:49.416Z,34.19
2017-04-20T09:00:49.454Z,34.19
2017-04-20T09:01:49.153Z,34.19
2017-04-20T09:02:49.492Z,33.61
2017-04-20T09:03:49.519Z,33.23
2017-04-20T09:04:49.247Z,33.13
2017-04-20T09:05:49.260Z,33.03
2017-04-20T09:06:49.290Z,32.75
2017-04-20T09:07:49.626Z,32.94
2017-04-20T09:08:49.651Z,33.03
2017-04-20T09:09:49.672Z,32.75
2017-04-20T09:10:49.391Z,32.84
2017-04-20T09:11:49.733Z,33.03
2017-04-20T09:12:49.759Z,33.05
2017-04-20T09:13:49.471Z,33.13
2017-04-20T09:14:49.803Z,33.15
2017-04-20T09:15:49.836Z,32.75
2017-04-20T09:16:49.852Z,32.67
2017-04-20T09:17:49.885Z,32.75
2017-04-20T09:18:49.914Z,32.17
2017-04-20T09:19:49.622Z,32.65
2017-04-20T09:20:49.968Z,32.75
2017-04-20T09:21:49.992Z,32.76
2017-04-20T09:22:50.017Z,32.76
2017-04-20T09:23:49.730Z,33.13
2017-04-20T09:24:50.071Z,33.03
2017-04-20T09:25:50.088Z,33.61
2017-04-20T09:26:50.112Z,33.51
2017-04-20T09:27:50.145Z,33.71
2017-04-20T09:28:50.170Z,33.42
2017-04-20T09:29:49.890Z,32.65
2017-04-20T09:30:50.215Z,33.15
2017-04-20T09:31:49.940Z,32.94
2017-04-20T09:32:49.964Z,32.67
2017-04-20T09:33:50.313Z,33.05
2017-04-20T09:34:50.330Z,32.84
2017-04-20T09:35:50.046Z,32.76
2017-04-20T09:36:50.082Z,32.56
2017-04-20T09:37:50.092Z,32.38
2017-04-20T09:38:50.120Z,32.18
2017-04-20T09:39:50.713Z,32.47
2017-04-20T09:40:50.477Z,32.38
2017-04-20T09:41:50.516Z,32.57
2017-04-20T09:42:50.228Z,33.05
2017-04-20T09:43:50.568Z,32.76
2017-04-20T09:44:50.837Z,32.47
2017-04-20T09:45:50.303Z,31.7
2017-04-20T09:46:50.331Z,32.18
2017-04-20T09:47:50.360Z,32.57
2017-04-20T09:48:50.692Z,32.76
2017-04-20T09:49:50.660Z,32.67
2017-04-20T09:50:50.750Z,32.86
2017-04-20T09:51:50.771Z,32.09
2017-04-20T09:52:50.800Z,32.47
2017-04-20T09:53:50.828Z,32.38
2017-04-20T09:54:51.106Z,32.38
2017-04-20T09:55:50.874Z,32.38
2017-04-20T09:56:50.921Z,32.28
2017-04-20T09:57:50.927Z,32.28
2017-04-20T09:58:50.956Z,32.28
2017-04-20T09:59:51.245Z,32.38
2017-04-20T10:00:50.699Z,32.86
2017-04-20T10:01:51.032Z,32.76
2017-04-20T10:02:50.755Z,32.38
2017-04-20T10:03:51.090Z,32.57
2017-04-20T10:04:51.363Z,32.76
2017-04-20T10:05:51.139Z,32.86
2017-04-20T10:06:51.166Z,32.86
2017-04-20T10:07:51.195Z,32.67
2017-04-20T10:08:50.907Z,32.76
2017-04-20T10:09:51.499Z,32.18
2017-04-20T10:10:51.274Z,31.99
2017-04-20T10:11:51.303Z,32.18
2017-04-20T10:12:51.323Z,32.18
2017-04-20T10:13:51.347Z,31.12
2017-04-20T10:14:51.627Z,32.28
2017-04-20T10:15:51.404Z,32.47
2017-04-20T10:16:51.434Z,32.57
2017-04-20T10:17:51.464Z,32.67
2017-04-20T10:18:51.487Z,32.97
2017-04-20T10:19:51.778Z,32.68
2017-04-20T10:20:51.535Z,32.57
2017-04-20T10:21:51.561Z,32.78
2017-04-20T10:22:51.279Z,32.68
2017-04-20T10:23:51.607Z,32.67
2017-04-20T10:24:51.578Z,32.78
2017-04-20T10:25:51.671Z,32.59
2017-04-20T10:26:51.380Z,32.76
2017-04-20T10:27:51.405Z,32.78
2017-04-20T10:28:51.746Z,32.49
2017-04-20T10:29:52.018Z,32.68
2017-04-20T10:30:51.487Z,32.59
2017-04-20T10:31:51.824Z,32.68
2017-04-20T10:32:51.854Z,32.59
2017-04-20T10:33:51.879Z,32.49
2017-04-20T10:34:51.591Z,32.39
2017-04-20T10:35:51.923Z,32.78
2017-04-20T10:36:51.951Z,32.49
2017-04-20T10:37:51.984Z,32.39
2017-04-20T10:38:52.005Z,32.68
2017-04-20T10:39:52.150Z,32.68
2017-04-20T10:40:51.746Z,32.68
2017-04-20T10:41:52.087Z,32.38
2017-04-20T10:42:52.112Z,32.39
2017-04-20T10:43:52.142Z,32.29
2017-04-20T10:44:52.166Z,32.49
2017-04-20T10:45:52.194Z,32.49
2017-04-20T10:46:52.218Z,32.78
2017-04-20T10:47:51.932Z,32.97
2017-04-20T10:48:52.271Z,33.07
2017-04-20T10:49:52.296Z,32.97
2017-04-20T10:50:52.325Z,33.17
2017-04-20T10:51:52.351Z,33.07
2017-04-20T10:52:52.377Z,33.07
2017-04-20T10:53:52.405Z,33.26
2017-04-20T10:54:52.432Z,33.26
2017-04-20T10:55:52.461Z,32.78
2017-04-20T10:56:52.476Z,33.36
2017-04-20T10:57:52.519Z,33.17
2017-04-20T10:58:52.541Z,33.45
2017-04-20T10:59:52.570Z,32.97
2017-04-20T11:00:52.277Z,32.87
2017-04-20T11:01:52.616Z,33.07
2017-04-20T11:02:52.643Z,32.78
2017-04-20T11:03:52.672Z,32.97
2017-04-20T11:04:52.700Z,32.2
2017-04-20T11:05:52.721Z,32.51
2017-04-20T11:06:52.749Z,31.04
2017-04-20T11:07:52.467Z,31.45
2017-04-20T11:08:52.802Z,31.93
2017-04-20T11:09:52.840Z,32.29
2017-04-20T11:10:52.857Z,32.49
2017-04-20T11:11:52.885Z,32.7
2017-04-20T11:12:52.598Z,32.7
2017-04-20T11:13:52.936Z,32.99
2017-04-20T11:14:52.967Z,31.06
2017-04-20T11:15:52.685Z,31.93
2017-04-20T11:16:53.017Z,32.21
2017-04-20T11:17:52.729Z,32.03
2017-04-20T11:18:53.075Z,31.83
2017-04-20T11:19:53.100Z,31.15
2017-04-20T11:20:53.125Z,32.03
2017-04-20T11:21:52.851Z,29.42
2017-04-20T11:22:53.175Z,27.68
2017-04-20T11:23:52.893Z,29.32
2017-04-20T11:24:53.235Z,27.59
2017-04-20T11:25:53.264Z,29.13
2017-04-20T11:26:53.287Z,28.16
2017-04-20T11:27:53.314Z,27.68
2017-04-20T11:28:53.345Z,28.36
2017-04-20T11:29:53.059Z,29.32
2017-04-20T11:30:53.527Z,30.19
2017-04-20T11:31:53.423Z,29.13
2017-04-20T11:32:53.452Z,29.71
2017-04-20T11:33:53.470Z,30.29
2017-04-20T11:34:53.498Z,30.3
2017-04-20T11:35:53.531Z,30.4
2017-04-20T11:36:53.552Z,30.59
2017-04-20T11:37:53.273Z,30.4
2017-04-20T11:38:53.609Z,30.49
2017-04-20T11:39:53.638Z,30.4
2017-04-20T11:40:53.355Z,30.32
2017-04-20T11:41:53.377Z,30.9
2017-04-20T11:42:53.403Z,30.8
2017-04-20T11:43:53.743Z,29.36
2017-04-20T11:44:53.774Z,29.66
2017-04-20T11:45:53.799Z,29.57
2017-04-20T11:46:53.512Z,29.28
2017-04-20T11:47:53.856Z,29.19
2017-04-20T11:48:53.885Z,28.91
2017-04-20T11:49:53.606Z,28.81
2017-04-20T11:50:53.948Z,28.44
2017-04-20T11:51:53.971Z,28.25
2017-04-20T11:52:53.991Z,27.97
2017-04-20T11:53:54.016Z,27.97
2017-04-20T11:54:54.053Z,27.87
2017-04-20T11:55:54.079Z,27.6
2017-04-20T11:56:54.115Z,27.22
2017-04-20T11:57:54.141Z,25.38
2017-04-20T11:58:54.166Z,25.88
2017-04-20T11:59:54.194Z,25.98
2017-04-20T12:00:54.223Z,26.27
2017-04-20T12:01:54.254Z,26.46
2017-04-20T12:02:54.291Z,27.06
2017-04-20T12:03:54.317Z,27.35
2017-04-20T12:04:54.030Z,27.07
2017-04-20T12:05:54.373Z,27.07
2017-04-20T12:06:54.402Z,26.49
2017-04-20T12:07:54.436Z,26.2
2017-04-20T12:08:54.464Z,26.01
2017-04-20T12:09:54.488Z,26.31
2017-04-20T12:10:54.520Z,26.11
2017-04-20T12:11:54.550Z,25.53
2017-04-20T12:12:54.271Z,25.54
2017-04-20T12:13:54.616Z,25.15
2017-04-20T12:14:54.332Z,24.38
2017-04-20T12:15:54.937Z,24.29
2017-04-20T12:16:54.709Z,24.58
2017-04-20T12:17:54.738Z,24.1
2017-04-20T12:18:54.776Z,23.9
2017-04-20T12:19:54.800Z,23.42
2017-04-20T12:20:55.077Z,24
2017-04-20T12:21:54.541Z,24.1
2017-04-20T12:22:54.578Z,24.4
2017-04-20T12:23:54.918Z,23.91
2017-04-20T12:24:54.947Z,23.43
2017-04-20T12:25:54.921Z,24.11
2017-04-20T12:26:55.018Z,23.91
2017-04-20T12:27:54.731Z,23.54
2017-04-20T12:28:55.143Z,22.27
2017-04-20T12:29:54.792Z,22.08
2017-04-20T12:30:55.387Z,21.79
2017-04-20T12:31:55.165Z,20.42
2017-04-20T12:32:55.198Z,21.11
2017-04-20T12:33:55.230Z,21.7
2017-04-20T12:34:55.259Z,21.7
2017-04-20T12:35:55.553Z,21.7
2017-04-20T12:36:55.010Z,21.89
2017-04-20T12:37:55.358Z,21.41
2017-04-20T12:38:55.390Z,20.53
2017-04-20T12:39:55.418Z,20.83
2017-04-20T12:40:55.703Z,20.63
2017-04-20T12:41:55.480Z,20.92
2017-04-20T12:42:55.512Z,21.12
2017-04-20T12:43:55.230Z,21.32
2017-04-20T12:44:55.578Z,21.42
2017-04-20T12:45:55.860Z,20.64
2017-04-20T12:46:55.639Z,20.83
2017-04-20T12:47:55.677Z,21.42
2017-04-20T12:48:55.711Z,21.12
2017-04-20T12:49:55.738Z,21.22
2017-04-20T12:50:56.024Z,20.83
2017-04-20T12:51:55.804Z,21.14
2017-04-20T12:52:55.832Z,20.94
2017-04-20T12:53:55.556Z,20.93
2017-04-20T12:54:55.898Z,20.55